sensor_id;sensor_type;location;lat;lon;timestamp;P1;durP1;ratioP1;P2;durP2;ratioP2
6549;SDS011;15142;48.888;9.134;2023-06-19T00:02:12;7.33;;;6.47;;
6549;SDS011;15142;48.888;9.134;2023-06-19T00:04:41;7.37;;;6.23;;
6549;SDS011;15142;48.888;9.134;2023-06-19T00:07:10;6.57;;;4.73;;
6549;SDS011;15142;48.888;9.134;2023-06-19T00:09:38;8.13;;;6.30;;
6549;SDS011;15142;48.888;9.134;2023-06-19T00:12:07;5.97;;;5.40;;
6549;SDS011;15142;48.888;9.134;2023-06-19T00:14:36;6.73;;;5.33;;
6549;SDS011;15142;48.888;9.134;2023-06-19T00:17:05;7.97;;;7.13;;
6549;SDS011;15142;48.888;9.134;2023-06-19T00:19:36;9.03;;;5.20;;
6549;SDS011;15142;48.888;9.134;2023-06-19T00:22:05;6.50;;;5.50;;
6549;SDS011;15142;48.888;9.134;2023-06-19T00:24:33;8.97;;;6.30;;
6549;SDS011;15142;48.888;9.134;2023-06-19T00:27:02;8.53;;;6.57;;
6549;SDS011;15142;48.888;9.134;2023-06-19T00:29:31;8.57;;;6.40;;
6549;SDS011;15142;48.888;9.134;2023-06-19T00:32:01;7.20;;;6.50;;
6549;SDS011;15142;48.888;9.134;2023-06-19T00:34:29;7.93;;;6.90;;
6549;SDS011;15142;48.888;9.134;2023-06-19T00:37:01;8.03;;;6.90;;
6549;SDS011;15142;48.888;9.134;2023-06-19T00:39:29;8.57;;;5.63;;
6549;SDS011;15142;48.888;9.134;2023-06-19T00:41:58;7.20;;;6.50;;
6549;SDS011;15142;48.888;9.134;2023-06-19T00:44:27;9.60;;;7.10;;
6549;SDS011;15142;48.888;9.134;2023-06-19T00:46:57;7.10;;;6.40;;
6549;SDS011;15142;48.888;9.134;2023-06-19T00:49:29;15.00;;;6.57;;
6549;SDS011;15142;48.888;9.134;2023-06-19T00:52:01;6.37;;;5.77;;
6549;SDS011;15142;48.888;9.134;2023-06-19T00:54:30;9.93;;;7.80;;
6549;SDS011;15142;48.888;9.134;2023-06-19T00:57:00;8.10;;;6.00;;
6549;SDS011;15142;48.888;9.134;2023-06-19T00:59:28;7.60;;;6.80;;
6549;SDS011;15142;48.888;9.134;2023-06-19T01:01:57;6.53;;;5.93;;
6549;SDS011;15142;48.888;9.134;2023-06-19T01:04:26;7.90;;;6.57;;
6549;SDS011;15142;48.888;9.134;2023-06-19T01:06:56;7.60;;;6.33;;
6549;SDS011;15142;48.888;9.134;2023-06-19T01:09:33;6.30;;;5.70;;
6549;SDS011;15142;48.888;9.134;2023-06-19T01:12:08;6.53;;;5.90;;
6549;SDS011;15142;48.888;9.134;2023-06-19T01:14:42;5.90;;;5.23;;
6549;SDS011;15142;48.888;9.134;2023-06-19T01:17:22;5.63;;;5.13;;
6549;SDS011;15142;48.888;9.134;2023-06-19T01:19:53;10.33;;;5.07;;
6549;SDS011;15142;48.888;9.134;2023-06-19T01:22:26;7.30;;;4.73;;
6549;SDS011;15142;48.888;9.134;2023-06-19T01:24:57;5.43;;;4.80;;
6549;SDS011;15142;48.888;9.134;2023-06-19T01:27:27;8.10;;;4.27;;
6549;SDS011;15142;48.888;9.134;2023-06-19T01:29:59;4.23;;;3.87;;
6549;SDS011;15142;48.888;9.134;2023-06-19T01:32:30;4.17;;;3.77;;
6549;SDS011;15142;48.888;9.134;2023-06-19T01:35:06;6.43;;;3.50;;
6549;SDS011;15142;48.888;9.134;2023-06-19T01:37:40;6.10;;;3.63;;
6549;SDS011;15142;48.888;9.134;2023-06-19T01:40:10;3.80;;;3.50;;
6549;SDS011;15142;48.888;9.134;2023-06-19T01:42:40;3.60;;;3.20;;
6549;SDS011;15142;48.888;9.134;2023-06-19T01:45:09;3.77;;;3.20;;
6549;SDS011;15142;48.888;9.134;2023-06-19T01:47:39;4.30;;;3.30;;
6549;SDS011;15142;48.888;9.134;2023-06-19T01:50:10;3.60;;;3.30;;
6549;SDS011;15142;48.888;9.134;2023-06-19T01:52:41;4.50;;;4.00;;
6549;SDS011;15142;48.888;9.134;2023-06-19T01:55:11;4.20;;;3.90;;
6549;SDS011;15142;48.888;9.134;2023-06-19T01:57:40;3.37;;;3.17;;
6549;SDS011;15142;48.888;9.134;2023-06-19T02:00:11;4.40;;;3.93;;
6549;SDS011;15142;48.888;9.134;2023-06-19T02:02:41;4.13;;;3.83;;
6549;SDS011;15142;48.888;9.134;2023-06-19T02:05:09;5.40;;;3.40;;
6549;SDS011;15142;48.888;9.134;2023-06-19T02:07:43;3.87;;;3.43;;
6549;SDS011;15142;48.888;9.134;2023-06-19T02:10:14;7.50;;;4.67;;
6549;SDS011;15142;48.888;9.134;2023-06-19T02:12:43;4.57;;;4.13;;
6549;SDS011;15142;48.888;9.134;2023-06-19T02:15:11;5.50;;;3.40;;
6549;SDS011;15142;48.888;9.134;2023-06-19T02:17:40;4.67;;;4.20;;
6549;SDS011;15142;48.888;9.134;2023-06-19T02:20:10;8.10;;;5.73;;
6549;SDS011;15142;48.888;9.134;2023-06-19T02:22:39;7.30;;;3.93;;
6549;SDS011;15142;48.888;9.134;2023-06-19T02:25:10;4.80;;;4.07;;
6549;SDS011;15142;48.888;9.134;2023-06-19T02:27:42;3.60;;;3.40;;
6549;SDS011;15142;48.888;9.134;2023-06-19T02:30:11;4.83;;;4.40;;
6549;SDS011;15142;48.888;9.134;2023-06-19T02:32:40;7.90;;;4.80;;
6549;SDS011;15142;48.888;9.134;2023-06-19T02:35:09;3.57;;;3.27;;
6549;SDS011;15142;48.888;9.134;2023-06-19T02:37:40;3.50;;;3.13;;
6549;SDS011;15142;48.888;9.134;2023-06-19T02:40:14;7.57;;;4.20;;
6549;SDS011;15142;48.888;9.134;2023-06-19T02:42:43;3.33;;;3.07;;
6549;SDS011;15142;48.888;9.134;2023-06-19T02:45:13;3.33;;;3.00;;
6549;SDS011;15142;48.888;9.134;2023-06-19T02:47:42;4.20;;;3.90;;
6549;SDS011;15142;48.888;9.134;2023-06-19T02:50:11;3.90;;;3.40;;
6549;SDS011;15142;48.888;9.134;2023-06-19T02:52:40;3.07;;;2.87;;
6549;SDS011;15142;48.888;9.134;2023-06-19T02:55:08;4.30;;;2.97;;
6549;SDS011;15142;48.888;9.134;2023-06-19T02:57:39;8.17;;;3.53;;
6549;SDS011;15142;48.888;9.134;2023-06-19T03:00:09;9.53;;;3.43;;
6549;SDS011;15142;48.888;9.134;2023-06-19T03:02:39;3.13;;;2.83;;
6549;SDS011;15142;48.888;9.134;2023-06-19T03:05:09;3.00;;;2.80;;
6549;SDS011;15142;48.888;9.134;2023-06-19T03:07:41;4.10;;;3.70;;
6549;SDS011;15142;48.888;9.134;2023-06-19T03:10:09;3.30;;;3.00;;
6549;SDS011;15142;48.888;9.134;2023-06-19T03:12:40;4.03;;;3.70;;
6549;SDS011;15142;48.888;9.134;2023-06-19T03:15:09;3.33;;;2.90;;
6549;SDS011;15142;48.888;9.134;2023-06-19T03:17:42;3.07;;;2.87;;
6549;SDS011;15142;48.888;9.134;2023-06-19T03:20:12;3.70;;;3.37;;
6549;SDS011;15142;48.888;9.134;2023-06-19T03:22:48;3.80;;;3.50;;
6549;SDS011;15142;48.888;9.134;2023-06-19T03:25:20;3.27;;;2.97;;
6549;SDS011;15142;48.888;9.134;2023-06-19T03:27:51;2.50;;;2.30;;
6549;SDS011;15142;48.888;9.134;2023-06-19T03:30:21;3.17;;;2.97;;
6549;SDS011;15142;48.888;9.134;2023-06-19T03:32:51;3.93;;;2.73;;
6549;SDS011;15142;48.888;9.134;2023-06-19T03:35:49;2.80;;;2.60;;
6549;SDS011;15142;48.888;9.134;2023-06-19T03:38:40;2.57;;;2.37;;
6549;SDS011;15142;48.888;9.134;2023-06-19T03:41:11;3.33;;;2.73;;
6549;SDS011;15142;48.888;9.134;2023-06-19T03:43:43;2.50;;;2.30;;
6549;SDS011;15142;48.888;9.134;2023-06-19T03:46:12;2.80;;;2.60;;
6549;SDS011;15142;48.888;9.134;2023-06-19T03:48:41;7.87;;;3.23;;
6549;SDS011;15142;48.888;9.134;2023-06-19T03:51:09;3.60;;;2.20;;
6549;SDS011;15142;48.888;9.134;2023-06-19T03:53:38;2.93;;;2.73;;
6549;SDS011;15142;48.888;9.134;2023-06-19T03:56:07;2.77;;;2.57;;
6549;SDS011;15142;48.888;9.134;2023-06-19T03:58:36;3.00;;;2.70;;
6549;SDS011;15142;48.888;9.134;2023-06-19T04:01:07;3.33;;;2.50;;
6549;SDS011;15142;48.888;9.134;2023-06-19T04:03:36;3.00;;;2.80;;
6549;SDS011;15142;48.888;9.134;2023-06-19T04:06:04;2.87;;;2.50;;
6549;SDS011;15142;48.888;9.134;2023-06-19T04:08:33;1.93;;;1.83;;
6549;SDS011;15142;48.888;9.134;2023-06-19T04:11:02;2.30;;;2.10;;
6549;SDS011;15142;48.888;9.134;2023-06-19T04:13:30;2.53;;;2.40;;
6549;SDS011;15142;48.888;9.134;2023-06-19T04:15:59;3.30;;;3.00;;
6549;SDS011;15142;48.888;9.134;2023-06-19T04:18:30;2.20;;;2.10;;
6549;SDS011;15142;48.888;9.134;2023-06-19T04:20:59;2.70;;;2.50;;
6549;SDS011;15142;48.888;9.134;2023-06-19T04:23:29;2.10;;;2.00;;
6549;SDS011;15142;48.888;9.134;2023-06-19T04:25:57;2.50;;;2.33;;
6549;SDS011;15142;48.888;9.134;2023-06-19T04:28:26;2.63;;;2.43;;
6549;SDS011;15142;48.888;9.134;2023-06-19T04:30:54;2.30;;;2.20;;
6549;SDS011;15142;48.888;9.134;2023-06-19T04:33:25;2.83;;;2.60;;
6549;SDS011;15142;48.888;9.134;2023-06-19T04:35:57;2.30;;;2.10;;
6549;SDS011;15142;48.888;9.134;2023-06-19T04:38:26;4.17;;;2.53;;
6549;SDS011;15142;48.888;9.134;2023-06-19T04:40:54;1.83;;;1.73;;
6549;SDS011;15142;48.888;9.134;2023-06-19T04:43:23;1.90;;;1.80;;
6549;SDS011;15142;48.888;9.134;2023-06-19T04:45:52;2.27;;;2.10;;
6549;SDS011;15142;48.888;9.134;2023-06-19T04:48:21;2.40;;;2.10;;
6549;SDS011;15142;48.888;9.134;2023-06-19T04:50:51;3.07;;;2.73;;
6549;SDS011;15142;48.888;9.134;2023-06-19T04:53:23;3.57;;;2.57;;
6549;SDS011;15142;48.888;9.134;2023-06-19T04:55:52;2.47;;;2.33;;
6549;SDS011;15142;48.888;9.134;2023-06-19T04:58:21;2.50;;;2.17;;
6549;SDS011;15142;48.888;9.134;2023-06-19T05:00:50;2.30;;;2.10;;
6549;SDS011;15142;48.888;9.134;2023-06-19T05:03:19;2.60;;;2.40;;
6549;SDS011;15142;48.888;9.134;2023-06-19T05:05:48;2.20;;;2.00;;
6549;SDS011;15142;48.888;9.134;2023-06-19T05:08:16;2.17;;;2.07;;
6549;SDS011;15142;48.888;9.134;2023-06-19T05:10:48;1.90;;;1.80;;
6549;SDS011;15142;48.888;9.134;2023-06-19T05:13:16;2.30;;;2.10;;
6549;SDS011;15142;48.888;9.134;2023-06-19T05:15:45;2.63;;;2.43;;
6549;SDS011;15142;48.888;9.134;2023-06-19T05:18:15;2.67;;;2.27;;
6549;SDS011;15142;48.888;9.134;2023-06-19T05:20:43;1.90;;;1.80;;
6549;SDS011;15142;48.888;9.134;2023-06-19T05:23:12;3.60;;;1.97;;
6549;SDS011;15142;48.888;9.134;2023-06-19T05:25:41;3.03;;;1.80;;
6549;SDS011;15142;48.888;9.134;2023-06-19T05:28:13;2.20;;;2.00;;
6549;SDS011;15142;48.888;9.134;2023-06-19T05:30:41;2.13;;;1.87;;
6549;SDS011;15142;48.888;9.134;2023-06-19T05:33:10;2.33;;;2.13;;
6549;SDS011;15142;48.888;9.134;2023-06-19T05:35:41;2.43;;;2.23;;
6549;SDS011;15142;48.888;9.134;2023-06-19T05:38:17;2.50;;;2.30;;
6549;SDS011;15142;48.888;9.134;2023-06-19T05:40:45;2.47;;;2.30;;
6549;SDS011;15142;48.888;9.134;2023-06-19T05:43:16;2.90;;;2.70;;
6549;SDS011;15142;48.888;9.134;2023-06-19T05:45:45;2.43;;;2.23;;
6549;SDS011;15142;48.888;9.134;2023-06-19T05:48:14;2.40;;;2.10;;
6549;SDS011;15142;48.888;9.134;2023-06-19T05:50:43;1.90;;;1.80;;
6549;SDS011;15142;48.888;9.134;2023-06-19T05:53:11;2.03;;;1.93;;
6549;SDS011;15142;48.888;9.134;2023-06-19T05:55:40;2.20;;;2.10;;
6549;SDS011;15142;48.888;9.134;2023-06-19T05:58:08;3.00;;;2.77;;
6549;SDS011;15142;48.888;9.134;2023-06-19T06:00:40;9.73;;;2.20;;
6549;SDS011;15142;48.888;9.134;2023-06-19T06:03:09;2.80;;;2.57;;
6549;SDS011;15142;48.888;9.134;2023-06-19T06:05:38;2.33;;;1.90;;
6549;SDS011;15142;48.888;9.134;2023-06-19T06:08:08;3.20;;;2.57;;
6549;SDS011;15142;48.888;9.134;2023-06-19T06:10:37;2.17;;;2.00;;
6549;SDS011;15142;48.888;9.134;2023-06-19T06:13:05;2.03;;;1.90;;
6549;SDS011;15142;48.888;9.134;2023-06-19T06:15:34;2.03;;;1.93;;
6549;SDS011;15142;48.888;9.134;2023-06-19T06:18:05;2.20;;;1.97;;
6549;SDS011;15142;48.888;9.134;2023-06-19T06:20:34;2.43;;;2.23;;
6549;SDS011;15142;48.888;9.134;2023-06-19T06:23:02;2.20;;;2.10;;
6549;SDS011;15142;48.888;9.134;2023-06-19T06:25:31;2.83;;;2.60;;
6549;SDS011;15142;48.888;9.134;2023-06-19T06:28:00;2.27;;;2.17;;
6549;SDS011;15142;48.888;9.134;2023-06-19T06:30:29;2.57;;;2.37;;
6549;SDS011;15142;48.888;9.134;2023-06-19T06:32:57;2.90;;;2.33;;
6549;SDS011;15142;48.888;9.134;2023-06-19T06:35:28;2.30;;;2.20;;
6549;SDS011;15142;48.888;9.134;2023-06-19T06:37:57;4.93;;;2.13;;
6549;SDS011;15142;48.888;9.134;2023-06-19T06:40:26;2.37;;;2.20;;
6549;SDS011;15142;48.888;9.134;2023-06-19T06:42:54;2.83;;;2.23;;
6549;SDS011;15142;48.888;9.134;2023-06-19T06:45:22;2.23;;;2.10;;
6549;SDS011;15142;48.888;9.134;2023-06-19T06:47:51;2.80;;;2.60;;
6549;SDS011;15142;48.888;9.134;2023-06-19T06:50:19;2.93;;;2.70;;
6549;SDS011;15142;48.888;9.134;2023-06-19T06:52:51;2.80;;;2.50;;
6549;SDS011;15142;48.888;9.134;2023-06-19T06:55:19;2.33;;;2.17;;
6549;SDS011;15142;48.888;9.134;2023-06-19T06:57:48;2.20;;;2.10;;
6549;SDS011;15142;48.888;9.134;2023-06-19T07:00:16;1.87;;;1.77;;
6549;SDS011;15142;48.888;9.134;2023-06-19T07:02:45;2.40;;;2.20;;
6549;SDS011;15142;48.888;9.134;2023-06-19T07:05:16;2.70;;;2.50;;
6549;SDS011;15142;48.888;9.134;2023-06-19T07:07:45;2.13;;;2.03;;
6549;SDS011;15142;48.888;9.134;2023-06-19T07:10:16;1.80;;;1.70;;
6549;SDS011;15142;48.888;9.134;2023-06-19T07:12:45;1.57;;;1.47;;
6549;SDS011;15142;48.888;9.134;2023-06-19T07:15:14;2.40;;;2.20;;
6549;SDS011;15142;48.888;9.134;2023-06-19T07:17:43;3.53;;;2.30;;
6549;SDS011;15142;48.888;9.134;2023-06-19T07:20:12;1.60;;;1.53;;
6549;SDS011;15142;48.888;9.134;2023-06-19T07:22:41;2.33;;;2.13;;
6549;SDS011;15142;48.888;9.134;2023-06-19T07:25:11;3.03;;;2.27;;
6549;SDS011;15142;48.888;9.134;2023-06-19T07:27:42;2.60;;;2.40;;
6549;SDS011;15142;48.888;9.134;2023-06-19T07:30:12;2.10;;;2.00;;
6549;SDS011;15142;48.888;9.134;2023-06-19T07:32:41;2.90;;;2.30;;
6549;SDS011;15142;48.888;9.134;2023-06-19T07:35:09;1.63;;;1.60;;
6549;SDS011;15142;48.888;9.134;2023-06-19T07:37:39;1.80;;;1.70;;
6549;SDS011;15142;48.888;9.134;2023-06-19T07:40:07;2.73;;;2.57;;
6549;SDS011;15142;48.888;9.134;2023-06-19T07:42:37;2.90;;;2.70;;
6549;SDS011;15142;48.888;9.134;2023-06-19T07:45:09;2.00;;;1.90;;
6549;SDS011;15142;48.888;9.134;2023-06-19T07:47:39;2.43;;;2.30;;
6549;SDS011;15142;48.888;9.134;2023-06-19T07:50:08;1.63;;;1.63;;
6549;SDS011;15142;48.888;9.134;2023-06-19T07:52:37;3.20;;;2.73;;
6549;SDS011;15142;48.888;9.134;2023-06-19T07:55:06;9.73;;;2.70;;
6549;SDS011;15142;48.888;9.134;2023-06-19T07:57:35;2.23;;;2.13;;
6549;SDS011;15142;48.888;9.134;2023-06-19T08:00:04;2.47;;;2.00;;
6549;SDS011;15142;48.888;9.134;2023-06-19T08:02:39;2.20;;;1.97;;
6549;SDS011;15142;48.888;9.134;2023-06-19T08:05:09;2.10;;;2.03;;
6549;SDS011;15142;48.888;9.134;2023-06-19T08:07:38;6.33;;;2.27;;
6549;SDS011;15142;48.888;9.134;2023-06-19T08:10:07;2.10;;;1.87;;
6549;SDS011;15142;48.888;9.134;2023-06-19T08:12:36;2.80;;;2.60;;
6549;SDS011;15142;48.888;9.134;2023-06-19T08:15:05;2.13;;;2.03;;
6549;SDS011;15142;48.888;9.134;2023-06-19T08:17:36;2.03;;;1.80;;
6549;SDS011;15142;48.888;9.134;2023-06-19T08:20:07;2.40;;;2.20;;
6549;SDS011;15142;48.888;9.134;2023-06-19T08:22:36;1.60;;;1.50;;
6549;SDS011;15142;48.888;9.134;2023-06-19T08:25:05;2.33;;;2.20;;
6549;SDS011;15142;48.888;9.134;2023-06-19T08:27:34;2.00;;;1.90;;
6549;SDS011;15142;48.888;9.134;2023-06-19T08:30:03;2.20;;;2.10;;
6549;SDS011;15142;48.888;9.134;2023-06-19T08:32:33;3.60;;;2.63;;
6549;SDS011;15142;48.888;9.134;2023-06-19T08:35:04;4.53;;;2.77;;
6549;SDS011;15142;48.888;9.134;2023-06-19T08:37:33;2.40;;;2.20;;
6549;SDS011;15142;48.888;9.134;2023-06-19T08:40:02;2.13;;;2.03;;
6549;SDS011;15142;48.888;9.134;2023-06-19T08:42:35;1.90;;;1.80;;
6549;SDS011;15142;48.888;9.134;2023-06-19T08:45:05;2.60;;;2.40;;
6549;SDS011;15142;48.888;9.134;2023-06-19T08:47:37;2.60;;;2.40;;
6549;SDS011;15142;48.888;9.134;2023-06-19T08:50:09;2.60;;;2.40;;
6549;SDS011;15142;48.888;9.134;2023-06-19T08:52:38;2.27;;;2.17;;
6549;SDS011;15142;48.888;9.134;2023-06-19T08:55:07;2.03;;;1.93;;
6549;SDS011;15142;48.888;9.134;2023-06-19T08:57:37;2.67;;;2.47;;
6549;SDS011;15142;48.888;9.134;2023-06-19T09:00:06;2.03;;;1.80;;
6549;SDS011;15142;48.888;9.134;2023-06-19T09:02:37;2.17;;;1.97;;
6549;SDS011;15142;48.888;9.134;2023-06-19T09:05:12;2.20;;;2.10;;
6549;SDS011;15142;48.888;9.134;2023-06-19T09:07:42;2.03;;;1.90;;
6549;SDS011;15142;48.888;9.134;2023-06-19T09:10:15;2.00;;;1.90;;
6549;SDS011;15142;48.888;9.134;2023-06-19T09:12:55;2.33;;;2.07;;
6549;SDS011;15142;48.888;9.134;2023-06-19T09:15:29;2.87;;;2.67;;
6549;SDS011;15142;48.888;9.134;2023-06-19T09:18:00;2.40;;;2.23;;
6549;SDS011;15142;48.888;9.134;2023-06-19T09:20:37;2.87;;;2.63;;
6549;SDS011;15142;48.888;9.134;2023-06-19T09:23:09;2.97;;;2.77;;
6549;SDS011;15142;48.888;9.134;2023-06-19T09:25:44;3.60;;;2.87;;
6549;SDS011;15142;48.888;9.134;2023-06-19T09:28:17;3.80;;;3.40;;
6549;SDS011;15142;48.888;9.134;2023-06-19T09:30:52;2.93;;;2.73;;
6549;SDS011;15142;48.888;9.134;2023-06-19T09:33:22;4.33;;;3.17;;
6549;SDS011;15142;48.888;9.134;2023-06-19T09:35:54;3.47;;;3.17;;
6549;SDS011;15142;48.888;9.134;2023-06-19T09:38:24;3.00;;;2.80;;
6549;SDS011;15142;48.888;9.134;2023-06-19T09:40:54;7.00;;;2.60;;
6549;SDS011;15142;48.888;9.134;2023-06-19T09:43:25;3.20;;;3.00;;
6549;SDS011;15142;48.888;9.134;2023-06-19T09:45:58;2.80;;;2.60;;
6549;SDS011;15142;48.888;9.134;2023-06-19T09:48:29;2.17;;;1.97;;
6549;SDS011;15142;48.888;9.134;2023-06-19T09:51:06;3.60;;;2.40;;
6549;SDS011;15142;48.888;9.134;2023-06-19T09:53:40;11.30;;;3.40;;
6549;SDS011;15142;48.888;9.134;2023-06-19T09:56:11;4.10;;;2.93;;
6549;SDS011;15142;48.888;9.134;2023-06-19T09:58:40;2.20;;;2.10;;
6549;SDS011;15142;48.888;9.134;2023-06-19T10:01:11;3.10;;;2.90;;
6549;SDS011;15142;48.888;9.134;2023-06-19T10:03:40;3.03;;;2.83;;
6549;SDS011;15142;48.888;9.134;2023-06-19T10:06:13;2.87;;;2.50;;
6549;SDS011;15142;48.888;9.134;2023-06-19T10:08:43;2.97;;;2.60;;
6549;SDS011;15142;48.888;9.134;2023-06-19T10:11:13;3.10;;;2.80;;
6549;SDS011;15142;48.888;9.134;2023-06-19T10:13:42;3.17;;;2.90;;
6549;SDS011;15142;48.888;9.134;2023-06-19T10:16:19;2.57;;;2.40;;
6549;SDS011;15142;48.888;9.134;2023-06-19T10:18:48;2.33;;;2.20;;
6549;SDS011;15142;48.888;9.134;2023-06-19T10:21:21;4.50;;;4.10;;
6549;SDS011;15142;48.888;9.134;2023-06-19T10:23:53;2.67;;;2.47;;
6549;SDS011;15142;48.888;9.134;2023-06-19T10:26:29;3.90;;;2.40;;
6549;SDS011;15142;48.888;9.134;2023-06-19T10:28:59;2.90;;;2.60;;
6549;SDS011;15142;48.888;9.134;2023-06-19T10:31:29;2.60;;;2.40;;
6549;SDS011;15142;48.888;9.134;2023-06-19T10:33:58;3.30;;;2.87;;
6549;SDS011;15142;48.888;9.134;2023-06-19T10:36:29;2.37;;;2.27;;
6549;SDS011;15142;48.888;9.134;2023-06-19T10:38:57;2.53;;;2.33;;
6549;SDS011;15142;48.888;9.134;2023-06-19T10:41:26;2.87;;;2.67;;
6549;SDS011;15142;48.888;9.134;2023-06-19T10:43:57;2.73;;;2.63;;
6549;SDS011;15142;48.888;9.134;2023-06-19T10:46:28;3.57;;;3.23;;
6549;SDS011;15142;48.888;9.134;2023-06-19T10:48:59;9.23;;;2.93;;
6549;SDS011;15142;48.888;9.134;2023-06-19T10:51:33;3.37;;;3.07;;
6549;SDS011;15142;48.888;9.134;2023-06-19T10:54:02;2.33;;;2.20;;
6549;SDS011;15142;48.888;9.134;2023-06-19T10:56:31;3.13;;;2.90;;
6549;SDS011;15142;48.888;9.134;2023-06-19T10:59:00;3.37;;;3.07;;
6549;SDS011;15142;48.888;9.134;2023-06-19T11:01:32;3.27;;;2.97;;
6549;SDS011;15142;48.888;9.134;2023-06-19T11:04:02;3.40;;;2.63;;
6549;SDS011;15142;48.888;9.134;2023-06-19T11:06:35;3.33;;;3.03;;
6549;SDS011;15142;48.888;9.134;2023-06-19T11:09:04;3.37;;;3.10;;
6549;SDS011;15142;48.888;9.134;2023-06-19T11:11:34;4.17;;;3.20;;
6549;SDS011;15142;48.888;9.134;2023-06-19T11:14:04;3.40;;;2.83;;
6549;SDS011;15142;48.888;9.134;2023-06-19T11:16:33;2.97;;;2.67;;
6549;SDS011;15142;48.888;9.134;2023-06-19T11:19:03;3.20;;;3.00;;
6549;SDS011;15142;48.888;9.134;2023-06-19T11:21:31;3.67;;;2.47;;
6549;SDS011;15142;48.888;9.134;2023-06-19T11:24:06;5.30;;;2.83;;
6549;SDS011;15142;48.888;9.134;2023-06-19T11:26:41;3.87;;;3.47;;
6549;SDS011;15142;48.888;9.134;2023-06-19T11:29:15;6.53;;;2.93;;
6549;SDS011;15142;48.888;9.134;2023-06-19T11:31:44;3.60;;;3.30;;
6549;SDS011;15142;48.888;9.134;2023-06-19T11:34:14;4.30;;;3.60;;
6549;SDS011;15142;48.888;9.134;2023-06-19T11:36:45;2.60;;;2.40;;
6549;SDS011;15142;48.888;9.134;2023-06-19T11:39:15;4.53;;;3.20;;
6549;SDS011;15142;48.888;9.134;2023-06-19T11:41:43;3.30;;;3.00;;
6549;SDS011;15142;48.888;9.134;2023-06-19T11:44:12;3.33;;;2.90;;
6549;SDS011;15142;48.888;9.134;2023-06-19T11:46:41;3.70;;;2.50;;
6549;SDS011;15142;48.888;9.134;2023-06-19T11:49:11;3.87;;;3.27;;
6549;SDS011;15142;48.888;9.134;2023-06-19T11:51:42;2.70;;;2.50;;
6549;SDS011;15142;48.888;9.134;2023-06-19T11:54:13;2.77;;;2.53;;
6549;SDS011;15142;48.888;9.134;2023-06-19T11:56:43;6.87;;;2.70;;
6549;SDS011;15142;48.888;9.134;2023-06-19T11:59:13;2.83;;;2.63;;
6549;SDS011;15142;48.888;9.134;2023-06-19T12:01:42;2.80;;;2.53;;
6549;SDS011;15142;48.888;9.134;2023-06-19T12:04:10;3.77;;;2.90;;
6549;SDS011;15142;48.888;9.134;2023-06-19T12:06:40;2.57;;;2.37;;
6549;SDS011;15142;48.888;9.134;2023-06-19T12:09:09;4.83;;;3.00;;
6549;SDS011;15142;48.888;9.134;2023-06-19T12:11:40;2.63;;;2.43;;
6549;SDS011;15142;48.888;9.134;2023-06-19T12:14:08;2.90;;;2.70;;
6549;SDS011;15142;48.888;9.134;2023-06-19T12:16:38;3.20;;;3.00;;
6549;SDS011;15142;48.888;9.134;2023-06-19T12:19:07;2.67;;;2.47;;
6549;SDS011;15142;48.888;9.134;2023-06-19T12:21:36;4.53;;;2.80;;
6549;SDS011;15142;48.888;9.134;2023-06-19T12:24:04;2.70;;;2.10;;
6549;SDS011;15142;48.888;9.134;2023-06-19T12:26:33;3.10;;;2.80;;
6549;SDS011;15142;48.888;9.134;2023-06-19T12:29:06;4.00;;;2.97;;
6549;SDS011;15142;48.888;9.134;2023-06-19T12:31:35;3.30;;;3.03;;
6549;SDS011;15142;48.888;9.134;2023-06-19T12:34:04;2.77;;;2.57;;
6549;SDS011;15142;48.888;9.134;2023-06-19T12:36:34;5.30;;;3.20;;
6549;SDS011;15142;48.888;9.134;2023-06-19T12:39:02;3.43;;;3.10;;
6549;SDS011;15142;48.888;9.134;2023-06-19T12:41:39;4.10;;;2.73;;
6549;SDS011;15142;48.888;9.134;2023-06-19T12:44:10;4.33;;;3.40;;
6549;SDS011;15142;48.888;9.134;2023-06-19T12:46:38;2.50;;;2.30;;
6549;SDS011;15142;48.888;9.134;2023-06-19T12:49:07;2.50;;;2.30;;
6549;SDS011;15142;48.888;9.134;2023-06-19T12:51:36;3.23;;;3.03;;
6549;SDS011;15142;48.888;9.134;2023-06-19T12:54:04;2.73;;;2.47;;
6549;SDS011;15142;48.888;9.134;2023-06-19T12:56:33;2.40;;;2.30;;
6549;SDS011;15142;48.888;9.134;2023-06-19T12:59:02;2.53;;;2.33;;
6549;SDS011;15142;48.888;9.134;2023-06-19T13:01:33;3.33;;;3.10;;
6549;SDS011;15142;48.888;9.134;2023-06-19T13:04:01;14.30;;;3.10;;
6549;SDS011;15142;48.888;9.134;2023-06-19T13:06:30;2.93;;;2.63;;
6549;SDS011;15142;48.888;9.134;2023-06-19T13:08:59;3.00;;;2.80;;
6549;SDS011;15142;48.888;9.134;2023-06-19T13:11:27;4.60;;;2.83;;
6549;SDS011;15142;48.888;9.134;2023-06-19T13:13:56;3.43;;;2.60;;
6549;SDS011;15142;48.888;9.134;2023-06-19T13:16:24;3.80;;;3.10;;
6549;SDS011;15142;48.888;9.134;2023-06-19T13:18:55;2.40;;;2.30;;
6549;SDS011;15142;48.888;9.134;2023-06-19T13:21:24;3.25;;;2.75;;
6549;SDS011;15142;48.888;9.134;2023-06-19T13:23:53;3.08;;;2.60;;
6549;SDS011;15142;48.888;9.134;2023-06-19T13:26:21;4.50;;;2.60;;
6549;SDS011;15142;48.888;9.134;2023-06-19T13:28:50;3.10;;;2.80;;
6549;SDS011;15142;48.888;9.134;2023-06-19T13:31:18;2.60;;;2.50;;
6549;SDS011;15142;48.888;9.134;2023-06-19T13:33:47;2.47;;;2.28;;
6549;SDS011;15142;48.888;9.134;2023-06-19T13:36:18;3.40;;;2.10;;
6549;SDS011;15142;48.888;9.134;2023-06-19T13:38:50;3.95;;;3.65;;
6549;SDS011;15142;48.888;9.134;2023-06-19T13:41:18;2.70;;;2.50;;
6549;SDS011;15142;48.888;9.134;2023-06-19T13:43:49;2.30;;;2.20;;
6549;SDS011;15142;48.888;9.134;2023-06-19T13:46:18;4.40;;;2.40;;
6549;SDS011;15142;48.888;9.134;2023-06-19T13:48:47;3.80;;;3.40;;
6549;SDS011;15142;48.888;9.134;2023-06-19T13:51:19;3.50;;;3.20;;
6549;SDS011;15142;48.888;9.134;2023-06-19T13:53:48;4.60;;;3.10;;
6549;SDS011;15142;48.888;9.134;2023-06-19T13:56:19;3.20;;;2.90;;
6549;SDS011;15142;48.888;9.134;2023-06-19T13:58:48;3.30;;;2.97;;
6549;SDS011;15142;48.888;9.134;2023-06-19T14:01:17;3.10;;;2.90;;
6549;SDS011;15142;48.888;9.134;2023-06-19T14:03:45;3.77;;;2.90;;
6549;SDS011;15142;48.888;9.134;2023-06-19T14:06:14;2.23;;;2.13;;
6549;SDS011;15142;48.888;9.134;2023-06-19T14:08:46;2.77;;;2.67;;
6549;SDS011;15142;48.888;9.134;2023-06-19T14:11:14;2.87;;;2.60;;
6549;SDS011;15142;48.888;9.134;2023-06-19T14:13:43;3.17;;;2.97;;
6549;SDS011;15142;48.888;9.134;2023-06-19T14:16:11;3.03;;;2.47;;
6549;SDS011;15142;48.888;9.134;2023-06-19T14:18:40;2.17;;;2.07;;
6549;SDS011;15142;48.888;9.134;2023-06-19T14:21:08;4.00;;;3.60;;
6549;SDS011;15142;48.888;9.134;2023-06-19T14:23:37;4.17;;;3.00;;
6549;SDS011;15142;48.888;9.134;2023-06-19T14:26:11;4.83;;;3.23;;
6549;SDS011;15142;48.888;9.134;2023-06-19T14:28:40;2.97;;;2.77;;
6549;SDS011;15142;48.888;9.134;2023-06-19T14:31:09;3.20;;;3.00;;
6549;SDS011;15142;48.888;9.134;2023-06-19T14:33:37;3.03;;;2.60;;
6549;SDS011;15142;48.888;9.134;2023-06-19T14:36:05;3.23;;;3.03;;
6549;SDS011;15142;48.888;9.134;2023-06-19T14:38:34;3.43;;;2.97;;
6549;SDS011;15142;48.888;9.134;2023-06-19T14:41:02;3.87;;;3.57;;
6549;SDS011;15142;48.888;9.134;2023-06-19T14:43:34;3.57;;;3.27;;
6549;SDS011;15142;48.888;9.134;2023-06-19T14:46:02;4.43;;;2.67;;
6549;SDS011;15142;48.888;9.134;2023-06-19T14:48:31;3.37;;;2.90;;
6549;SDS011;15142;48.888;9.134;2023-06-19T14:51:00;2.63;;;2.43;;
6549;SDS011;15142;48.888;9.134;2023-06-19T14:53:30;2.93;;;2.63;;
6549;SDS011;15142;48.888;9.134;2023-06-19T14:55:59;4.03;;;3.67;;
6549;SDS011;15142;48.888;9.134;2023-06-19T14:58:28;6.80;;;3.23;;
6549;SDS011;15142;48.888;9.134;2023-06-19T15:00:59;2.93;;;2.67;;
6549;SDS011;15142;48.888;9.134;2023-06-19T15:03:27;6.33;;;3.10;;
6549;SDS011;15142;48.888;9.134;2023-06-19T15:05:56;5.23;;;4.70;;
6549;SDS011;15142;48.888;9.134;2023-06-19T15:08:24;3.63;;;3.33;;
6549;SDS011;15142;48.888;9.134;2023-06-19T15:10:53;6.13;;;2.90;;
6549;SDS011;15142;48.888;9.134;2023-06-19T15:13:22;4.13;;;3.23;;
6549;SDS011;15142;48.888;9.134;2023-06-19T15:15:51;4.10;;;3.77;;
6549;SDS011;15142;48.888;9.134;2023-06-19T15:18:22;3.00;;;2.80;;